Flight Track Log - Related Links

Times and Time Zones

All times are in EDT time to prevent confusion due to time zone crossing. See the AFR1068 flight status page for this flight to view local times or setup timezone preferences in your user account.

Time Position Orientation Groundspeed Altitude Reporting Facility
EDT Latitude Longitude Course Direction KTS MPH feet Rate Location/Type
Tue 08:02:00 AM 49.0810 2.4823 327° Northwest  Level Estimated
Tue 08:03:00 AM 49.1492 2.4144 327° Northwest  Level Estimated
Tue 08:04:00 AM 49.2174 2.3463 327° Northwest  Level Estimated
Tue 08:05:00 AM 49.2855 2.2781 327° Northwest  Level Estimated
Tue 08:06:00 AM 49.3536 2.2096 327° Northwest  Level Estimated
Tue 08:07:00 AM 49.4217 2.1410 327° Northwest  Level Estimated
Tue 08:08:00 AM 49.4897 2.0721 327° Northwest  Level Estimated
Tue 08:09:00 AM 49.5577 2.0031 327° Northwest  Level Estimated
Tue 08:10:00 AM 49.6256 1.9339 327° Northwest  Level Estimated
Tue 08:11:00 AM 49.6935 1.8645 327° Northwest  Level Estimated
Tue 08:12:00 AM 49.7613 1.7949 326° Northwest  Level Estimated
Tue 08:13:00 AM 49.8291 1.7251 326° Northwest  Level Estimated
Tue 08:14:00 AM 49.8969 1.6551 326° Northwest  Level Estimated
Tue 08:15:00 AM 49.9646 1.5849 326° Northwest  Level Estimated
Tue 08:16:00 AM 50.0323 1.5145 326° Northwest  Level Estimated
Tue 08:17:00 AM 50.0999 1.4439 326° Northwest  Level Estimated
Tue 08:18:00 AM 50.1675 1.3731 326° Northwest  Level Estimated
Tue 08:19:00 AM 50.2350 1.3021 326° Northwest  Level Estimated
Tue 08:20:00 AM 50.3025 1.2309 326° Northwest  Level Estimated
Tue 08:21:00 AM 50.3700 1.1595 326° Northwest  Level Estimated
Tue 08:22:00 AM 50.4374 1.0879 326° Northwest  Level Estimated
Tue 08:23:00 AM 50.5048 1.0161 326° Northwest  Level Estimated
Tue 08:24:00 AM 50.5682 0.9483 326° Northwest  Level Estimated
Tue 08:25:00 AM 50.6316 0.8803 326° Northwest  Level Estimated
Tue 08:26:00 AM 50.6949 0.8121 326° Northwest  Level Estimated
Tue 08:27:00 AM 50.7582 0.7437 326° Northwest  Level Estimated
Tue 08:28:00 AM 50.8215 0.6752 326° Northwest  Level Estimated
Tue 08:29:00 AM 50.8847 0.6064 326° Northwest  Level Estimated
Tue 08:30:00 AM 50.9479 0.5375 326° Northwest  Level Estimated
Tue 08:31:00 AM 51.0111 0.4684 325° Northwest  Level Estimated
Tue 08:32:00 AM 51.0742 0.3990 325° Northwest  Level Estimated
Tue 08:33:00 AM 51.1372 0.3295 325° Northwest  Level Estimated
Tue 08:34:00 AM 51.2002 0.2599 325° Northwest  Level Estimated
Tue 08:35:00 AM 51.2632 0.1900 325° Northwest  Level Estimated
Tue 08:36:00 AM 51.3262 0.1199 325° Northwest  Level Estimated
Tue 08:37:00 AM 51.3856 0.0535 325° Northwest  Level Estimated
Tue 08:38:00 AM 51.4450 -0.0131 325° Northwest  Level Estimated
Tue 08:39:00 AM 51.5044 -0.0798 325° Northwest  Level Estimated
Tue 08:40:00 AM 51.5637 -0.1468 325° Northwest  Level Estimated
Tue 08:41:00 AM 51.6230 -0.2139 325° Northwest  Level Estimated
Tue 08:42:00 AM 51.6823 -0.2812 325° Northwest  Level Estimated
Tue 08:43:00 AM 51.7415 -0.3486 325° Northwest  Level Estimated
Tue 08:44:00 AM 51.8007 -0.4162 325° Northwest  Level Estimated
Tue 08:45:00 AM 51.8598 -0.4841 325° Northwest  Level Estimated
Tue 08:46:00 AM 51.9189 -0.5520 325° Northwest  Level Estimated
Tue 08:47:00 AM 51.9780 -0.6202 325° Northwest  Level Estimated
Tue 08:48:00 AM 52.0370 -0.6886 325° Northwest  Level Estimated
Tue 08:49:00 AM 52.0960 -0.7571 324° Northwest  Level Estimated
Tue 08:50:00 AM 52.1550 -0.8258 324° Northwest  Level Estimated
Tue 08:51:00 AM 52.2139 -0.8947 324° Northwest  Level Estimated
Tue 08:52:00 AM 52.2728 -0.9638 324° Northwest  Level Estimated
Tue 08:53:00 AM 52.3316 -1.0330 324° Northwest  Level Estimated
Tue 08:54:00 AM 52.3904 -1.1025 324° Northwest  Level Estimated
Tue 08:55:00 AM 52.4491 -1.1721 324° Northwest  Level Estimated
Tue 08:56:00 AM 52.5078 -1.2419 324° Northwest  Level Estimated
Tue 08:57:00 AM 52.5665 -1.3119 324° Northwest  Level Estimated
Tue 08:58:00 AM 52.6251 -1.3821 324° Northwest  Level Estimated
Tue 08:59:00 AM 52.6837 -1.4525 324° Northwest  Level Estimated
Tue 09:00:00 AM 52.7422 -1.5231 324° Northwest  Level Estimated
Tue 09:01:00 AM 52.8007 -1.5938 324° Northwest  Level Estimated
Tue 09:02:00 AM 52.8592 -1.6648 324° Northwest  Level Estimated
Tue 09:03:00 AM 52.9176 -1.7359 324° Northwest  Level Estimated
Tue 09:04:00 AM 52.9760 -1.8073 324° Northwest  Level Estimated
Tue 09:05:00 AM 53.0343 -1.8788 324° Northwest  Level Estimated
Tue 09:06:00 AM 53.0926 -1.9505 324° Northwest  Level Estimated
Tue 09:07:00 AM 53.1508 -2.0224 323° Northwest  Level Estimated
Tue 09:08:00 AM 53.2090 -2.0945 323° Northwest  Level Estimated
Tue 09:09:00 AM 53.2672 -2.1668 323° Northwest  Level Estimated
Tue 09:10:00 AM 53.3253 -2.2393 323° Northwest  Level Estimated
Tue 09:11:00 AM 53.3537 -2.2750 323° Northwest  Level Estimated
Tue 09:12:00 AM 53.3537 -2.2750 North  Level Estimated
Tue 09:13:00 AM 53.3537 -2.2750 North  Level Estimated
Tue 09:14:00 AM 53.3537 -2.2750 North  Level Estimated

Login

Don't have an account? Register now (free) for customized features, flight alerts, and more!